sensor_id;sensor_type;location;lat;lon;timestamp;P1;durP1;ratioP1;P2;durP2;ratioP2
64500;SDS011;50874;24.150;-110.320;2023-02-28T00:00:34;16.10;;;2.50;;
64500;SDS011;50874;24.150;-110.320;2023-02-28T00:03:02;14.60;;;2.15;;
64500;SDS011;50874;24.150;-110.320;2023-02-28T00:05:29;19.35;;;2.28;;
64500;SDS011;50874;24.150;-110.320;2023-02-28T00:07:56;14.82;;;1.85;;
64500;SDS011;50874;24.150;-110.320;2023-02-28T00:10:24;10.70;;;1.77;;
64500;SDS011;50874;24.150;-110.320;2023-02-28T00:12:53;11.20;;;1.27;;
64500;SDS011;50874;24.150;-110.320;2023-02-28T00:15:22;12.57;;;2.10;;
64500;SDS011;50874;24.150;-110.320;2023-02-28T00:17:49;15.25;;;2.00;;
64500;SDS011;50874;24.150;-110.320;2023-02-28T00:20:15;33.35;;;4.25;;
64500;SDS011;50874;24.150;-110.320;2023-02-28T00:22:43;13.30;;;1.58;;
64500;SDS011;50874;24.150;-110.320;2023-02-28T00:25:13;18.83;;;3.97;;
64500;SDS011;50874;24.150;-110.320;2023-02-28T00:27:41;14.27;;;2.55;;
64500;SDS011;50874;24.150;-110.320;2023-02-28T00:30:10;24.13;;;2.80;;
64500;SDS011;50874;24.150;-110.320;2023-02-28T00:32:38;13.23;;;2.10;;
64500;SDS011;50874;24.150;-110.320;2023-02-28T00:35:05;8.35;;;2.20;;
64500;SDS011;50874;24.150;-110.320;2023-02-28T00:37:32;19.42;;;2.40;;
64500;SDS011;50874;24.150;-110.320;2023-02-28T00:39:59;25.08;;;2.75;;
64500;SDS011;50874;24.150;-110.320;2023-02-28T00:42:26;18.13;;;2.30;;
64500;SDS011;50874;24.150;-110.320;2023-02-28T00:44:52;17.67;;;2.03;;
64500;SDS011;50874;24.150;-110.320;2023-02-28T00:47:19;11.13;;;1.70;;
64500;SDS011;50874;24.150;-110.320;2023-02-28T00:49:45;13.60;;;1.98;;
64500;SDS011;50874;24.150;-110.320;2023-02-28T00:52:12;15.55;;;2.00;;
64500;SDS011;50874;24.150;-110.320;2023-02-28T00:54:38;72.13;;;5.93;;
64500;SDS011;50874;24.150;-110.320;2023-02-28T00:57:05;11.45;;;1.33;;
64500;SDS011;50874;24.150;-110.320;2023-02-28T00:59:31;17.83;;;2.20;;
64500;SDS011;50874;24.150;-110.320;2023-02-28T01:01:58;59.40;;;7.40;;
64500;SDS011;50874;24.150;-110.320;2023-02-28T01:04:24;13.95;;;1.95;;
64500;SDS011;50874;24.150;-110.320;2023-02-28T01:06:51;41.90;;;3.42;;
64500;SDS011;50874;24.150;-110.320;2023-02-28T01:09:17;24.83;;;2.63;;
64500;SDS011;50874;24.150;-110.320;2023-02-28T01:11:43;10.02;;;1.95;;
64500;SDS011;50874;24.150;-110.320;2023-02-28T01:14:14;18.52;;;1.75;;
64500;SDS011;50874;24.150;-110.320;2023-02-28T01:16:42;16.50;;;2.72;;
64500;SDS011;50874;24.150;-110.320;2023-02-28T01:21:53;37.00;;;4.82;;
64500;SDS011;50874;24.150;-110.320;2023-02-28T01:24:19;32.20;;;4.13;;
64500;SDS011;50874;24.150;-110.320;2023-02-28T01:26:46;76.15;;;6.03;;
64500;SDS011;50874;24.150;-110.320;2023-02-28T01:29:12;38.50;;;3.75;;
64500;SDS011;50874;24.150;-110.320;2023-02-28T01:31:39;73.32;;;7.20;;
64500;SDS011;50874;24.150;-110.320;2023-02-28T01:34:05;46.97;;;4.65;;
64500;SDS011;50874;24.150;-110.320;2023-02-28T01:36:31;39.03;;;5.07;;
64500;SDS011;50874;24.150;-110.320;2023-02-28T01:38:58;214.07;;;18.95;;
64500;SDS011;50874;24.150;-110.320;2023-02-28T01:41:26;19.92;;;3.78;;
64500;SDS011;50874;24.150;-110.320;2023-02-28T01:43:56;31.13;;;3.53;;
64500;SDS011;50874;24.150;-110.320;2023-02-28T01:46:52;123.95;;;14.15;;
64500;SDS011;50874;24.150;-110.320;2023-02-28T01:49:18;12.63;;;2.08;;
64500;SDS011;50874;24.150;-110.320;2023-02-28T01:51:49;18.20;;;1.90;;
64500;SDS011;50874;24.150;-110.320;2023-02-28T01:54:21;60.88;;;6.40;;
64500;SDS011;50874;24.150;-110.320;2023-02-28T01:56:59;7.32;;;1.40;;
64500;SDS011;50874;24.150;-110.320;2023-02-28T01:59:34;10.05;;;2.03;;
64500;SDS011;50874;24.150;-110.320;2023-02-28T02:02:14;15.95;;;1.08;;
64500;SDS011;50874;24.150;-110.320;2023-02-28T02:04:51;16.45;;;1.90;;
64500;SDS011;50874;24.150;-110.320;2023-02-28T02:07:26;14.60;;;2.22;;
64500;SDS011;50874;24.150;-110.320;2023-02-28T02:10:05;4.35;;;1.48;;
64500;SDS011;50874;24.150;-110.320;2023-02-28T02:12:55;55.55;;;5.53;;
64500;SDS011;50874;24.150;-110.320;2023-02-28T02:17:56;18.65;;;2.17;;
64500;SDS011;50874;24.150;-110.320;2023-02-28T02:23:27;16.45;;;2.65;;
64500;SDS011;50874;24.150;-110.320;2023-02-28T02:35:22;11.63;;;1.77;;
64500;SDS011;50874;24.150;-110.320;2023-02-28T02:37:52;31.10;;;6.32;;
64500;SDS011;50874;24.150;-110.320;2023-02-28T02:40:59;15.55;;;3.72;;
64500;SDS011;50874;24.150;-110.320;2023-02-28T02:46:06;53.33;;;4.45;;
64500;SDS011;50874;24.150;-110.320;2023-02-28T02:48:49;22.92;;;2.70;;
64500;SDS011;50874;24.150;-110.320;2023-02-28T02:51:19;27.23;;;3.50;;
64500;SDS011;50874;24.150;-110.320;2023-02-28T02:53:49;9.25;;;1.73;;
64500;SDS011;50874;24.150;-110.320;2023-02-28T02:56:24;13.60;;;2.03;;
64500;SDS011;50874;24.150;-110.320;2023-02-28T02:58:54;19.70;;;2.60;;
64500;SDS011;50874;24.150;-110.320;2023-02-28T03:01:25;21.83;;;3.22;;
64500;SDS011;50874;24.150;-110.320;2023-02-28T03:03:55;31.77;;;4.28;;
64500;SDS011;50874;24.150;-110.320;2023-02-28T03:06:34;46.85;;;4.45;;
64500;SDS011;50874;24.150;-110.320;2023-02-28T03:09:00;20.23;;;2.25;;
64500;SDS011;50874;24.150;-110.320;2023-02-28T03:11:27;16.77;;;2.00;;
64500;SDS011;50874;24.150;-110.320;2023-02-28T03:25:08;30.13;;;3.22;;
64500;SDS011;50874;24.150;-110.320;2023-02-28T03:28:03;19.25;;;2.70;;
64500;SDS011;50874;24.150;-110.320;2023-02-28T03:30:49;68.25;;;5.05;;
64500;SDS011;50874;24.150;-110.320;2023-02-28T03:33:24;9.85;;;1.60;;
64500;SDS011;50874;24.150;-110.320;2023-02-28T03:35:59;82.35;;;10.18;;
64500;SDS011;50874;24.150;-110.320;2023-02-28T03:38:31;14.40;;;1.95;;
64500;SDS011;50874;24.150;-110.320;2023-02-28T03:41:16;16.00;;;2.47;;
64500;SDS011;50874;24.150;-110.320;2023-02-28T03:43:54;18.42;;;3.25;;
64500;SDS011;50874;24.150;-110.320;2023-02-28T03:46:32;26.98;;;4.00;;
64500;SDS011;50874;24.150;-110.320;2023-02-28T03:49:05;39.53;;;5.30;;
64500;SDS011;50874;24.150;-110.320;2023-02-28T03:51:39;9.45;;;2.65;;
64500;SDS011;50874;24.150;-110.320;2023-02-28T03:54:09;9.07;;;1.33;;
64500;SDS011;50874;24.150;-110.320;2023-02-28T04:01:58;6.25;;;1.30;;
64500;SDS011;50874;24.150;-110.320;2023-02-28T04:04:24;59.88;;;6.50;;
64500;SDS011;50874;24.150;-110.320;2023-02-28T04:06:51;40.58;;;4.40;;
64500;SDS011;50874;24.150;-110.320;2023-02-28T04:09:26;9.80;;;1.55;;
64500;SDS011;50874;24.150;-110.320;2023-02-28T04:11:53;31.73;;;3.40;;
64500;SDS011;50874;24.150;-110.320;2023-02-28T04:14:20;15.75;;;2.03;;
64500;SDS011;50874;24.150;-110.320;2023-02-28T04:16:47;67.28;;;7.93;;
64500;SDS011;50874;24.150;-110.320;2023-02-28T04:19:14;14.15;;;2.50;;
64500;SDS011;50874;24.150;-110.320;2023-02-28T04:21:42;22.33;;;3.47;;
64500;SDS011;50874;24.150;-110.320;2023-02-28T04:24:10;52.63;;;6.55;;
64500;SDS011;50874;24.150;-110.320;2023-02-28T04:26:43;7.25;;;1.85;;
64500;SDS011;50874;24.150;-110.320;2023-02-28T04:29:12;9.43;;;2.20;;
64500;SDS011;50874;24.150;-110.320;2023-02-28T04:31:43;15.40;;;2.90;;
64500;SDS011;50874;24.150;-110.320;2023-02-28T04:34:09;12.05;;;2.20;;
64500;SDS011;50874;24.150;-110.320;2023-02-28T04:36:36;34.60;;;4.18;;
64500;SDS011;50874;24.150;-110.320;2023-02-28T04:39:03;9.02;;;2.00;;
64500;SDS011;50874;24.150;-110.320;2023-02-28T04:41:29;13.32;;;2.17;;
64500;SDS011;50874;24.150;-110.320;2023-02-28T04:43:56;52.35;;;6.00;;
64500;SDS011;50874;24.150;-110.320;2023-02-28T04:46:22;41.65;;;4.22;;
64500;SDS011;50874;24.150;-110.320;2023-02-28T04:48:49;12.77;;;1.90;;
64500;SDS011;50874;24.150;-110.320;2023-02-28T04:51:17;5.65;;;1.75;;
64500;SDS011;50874;24.150;-110.320;2023-02-28T04:53:45;22.25;;;3.28;;
64500;SDS011;50874;24.150;-110.320;2023-02-28T04:56:12;26.35;;;3.33;;
64500;SDS011;50874;24.150;-110.320;2023-02-28T04:58:40;6.20;;;1.50;;
64500;SDS011;50874;24.150;-110.320;2023-02-28T05:01:14;26.10;;;2.70;;
64500;SDS011;50874;24.150;-110.320;2023-02-28T05:03:45;14.02;;;1.92;;
64500;SDS011;50874;24.150;-110.320;2023-02-28T05:06:11;13.30;;;2.17;;
64500;SDS011;50874;24.150;-110.320;2023-02-28T05:08:39;16.75;;;2.05;;
64500;SDS011;50874;24.150;-110.320;2023-02-28T05:11:13;9.90;;;1.58;;
64500;SDS011;50874;24.150;-110.320;2023-02-28T05:13:51;12.02;;;2.97;;
64500;SDS011;50874;24.150;-110.320;2023-02-28T05:16:19;20.70;;;3.92;;
64500;SDS011;50874;24.150;-110.320;2023-02-28T05:18:45;45.75;;;5.03;;
64500;SDS011;50874;24.150;-110.320;2023-02-28T05:21:24;12.30;;;2.17;;
64500;SDS011;50874;24.150;-110.320;2023-02-28T05:24:05;18.13;;;2.28;;
64500;SDS011;50874;24.150;-110.320;2023-02-28T05:26:35;14.77;;;2.67;;
64500;SDS011;50874;24.150;-110.320;2023-02-28T05:29:03;11.75;;;2.90;;
64500;SDS011;50874;24.150;-110.320;2023-02-28T05:31:30;11.60;;;2.40;;
64500;SDS011;50874;24.150;-110.320;2023-02-28T05:33:57;8.88;;;1.77;;
64500;SDS011;50874;24.150;-110.320;2023-02-28T05:36:24;20.98;;;2.80;;
64500;SDS011;50874;24.150;-110.320;2023-02-28T05:38:50;45.13;;;5.30;;
64500;SDS011;50874;24.150;-110.320;2023-02-28T05:41:18;31.25;;;4.85;;
64500;SDS011;50874;24.150;-110.320;2023-02-28T05:43:47;41.63;;;6.20;;
64500;SDS011;50874;24.150;-110.320;2023-02-28T05:46:14;41.35;;;5.68;;
64500;SDS011;50874;24.150;-110.320;2023-02-28T05:48:42;31.17;;;4.20;;
64500;SDS011;50874;24.150;-110.320;2023-02-28T05:51:11;39.55;;;5.07;;
64500;SDS011;50874;24.150;-110.320;2023-02-28T05:53:38;31.13;;;4.93;;
64500;SDS011;50874;24.150;-110.320;2023-02-28T05:56:04;43.00;;;4.65;;
64500;SDS011;50874;24.150;-110.320;2023-02-28T05:58:32;23.45;;;3.40;;
64500;SDS011;50874;24.150;-110.320;2023-02-28T06:01:00;22.63;;;2.78;;
64500;SDS011;50874;24.150;-110.320;2023-02-28T06:03:44;22.65;;;2.50;;
64500;SDS011;50874;24.150;-110.320;2023-02-28T06:06:11;19.52;;;2.45;;
64500;SDS011;50874;24.150;-110.320;2023-02-28T06:08:37;228.75;;;22.98;;
64500;SDS011;50874;24.150;-110.320;2023-02-28T06:11:04;41.95;;;5.07;;
64500;SDS011;50874;24.150;-110.320;2023-02-28T06:13:31;28.17;;;3.65;;
64500;SDS011;50874;24.150;-110.320;2023-02-28T06:16:00;30.20;;;3.80;;
64500;SDS011;50874;24.150;-110.320;2023-02-28T06:18:27;34.22;;;3.90;;
64500;SDS011;50874;24.150;-110.320;2023-02-28T06:20:53;23.55;;;3.28;;
64500;SDS011;50874;24.150;-110.320;2023-02-28T06:23:21;23.67;;;2.88;;
64500;SDS011;50874;24.150;-110.320;2023-02-28T06:25:47;20.55;;;4.28;;
64500;SDS011;50874;24.150;-110.320;2023-02-28T06:28:14;30.60;;;3.63;;
64500;SDS011;50874;24.150;-110.320;2023-02-28T06:30:41;23.58;;;3.25;;
64500;SDS011;50874;24.150;-110.320;2023-02-28T06:33:08;14.25;;;2.47;;
64500;SDS011;50874;24.150;-110.320;2023-02-28T06:35:34;15.93;;;1.80;;
64500;SDS011;50874;24.150;-110.320;2023-02-28T06:38:01;18.42;;;2.17;;
64500;SDS011;50874;24.150;-110.320;2023-02-28T06:40:28;16.85;;;1.88;;
64500;SDS011;50874;24.150;-110.320;2023-02-28T06:42:57;6.70;;;1.13;;
64500;SDS011;50874;24.150;-110.320;2023-02-28T06:45:23;10.75;;;1.67;;
64500;SDS011;50874;24.150;-110.320;2023-02-28T06:47:51;10.95;;;1.90;;
64500;SDS011;50874;24.150;-110.320;2023-02-28T06:50:18;9.77;;;1.63;;
64500;SDS011;50874;24.150;-110.320;2023-02-28T06:52:45;10.77;;;1.40;;
64500;SDS011;50874;24.150;-110.320;2023-02-28T06:55:12;19.02;;;3.22;;
64500;SDS011;50874;24.150;-110.320;2023-02-28T06:57:39;33.78;;;3.35;;
64500;SDS011;50874;24.150;-110.320;2023-02-28T07:00:07;24.42;;;3.13;;
64500;SDS011;50874;24.150;-110.320;2023-02-28T07:02:35;16.90;;;2.53;;
64500;SDS011;50874;24.150;-110.320;2023-02-28T07:05:03;19.20;;;1.95;;
64500;SDS011;50874;24.150;-110.320;2023-02-28T07:07:30;12.70;;;2.25;;
64500;SDS011;50874;24.150;-110.320;2023-02-28T07:09:57;20.10;;;2.13;;
64500;SDS011;50874;24.150;-110.320;2023-02-28T07:12:24;28.75;;;2.55;;
64500;SDS011;50874;24.150;-110.320;2023-02-28T07:14:50;14.27;;;2.58;;
64500;SDS011;50874;24.150;-110.320;2023-02-28T07:17:17;32.58;;;3.90;;
64500;SDS011;50874;24.150;-110.320;2023-02-28T07:19:43;26.77;;;2.97;;
64500;SDS011;50874;24.150;-110.320;2023-02-28T07:22:10;35.45;;;4.40;;
64500;SDS011;50874;24.150;-110.320;2023-02-28T07:24:36;44.40;;;4.88;;
64500;SDS011;50874;24.150;-110.320;2023-02-28T07:27:03;46.05;;;6.13;;
64500;SDS011;50874;24.150;-110.320;2023-02-28T07:29:30;50.15;;;5.47;;
64500;SDS011;50874;24.150;-110.320;2023-02-28T07:31:56;61.92;;;7.97;;
64500;SDS011;50874;24.150;-110.320;2023-02-28T07:34:23;50.85;;;7.75;;
64500;SDS011;50874;24.150;-110.320;2023-02-28T07:36:53;29.75;;;6.13;;
64500;SDS011;50874;24.150;-110.320;2023-02-28T07:39:21;25.65;;;3.00;;
64500;SDS011;50874;24.150;-110.320;2023-02-28T07:41:47;24.67;;;3.03;;
64500;SDS011;50874;24.150;-110.320;2023-02-28T07:44:14;19.30;;;2.75;;
64500;SDS011;50874;24.150;-110.320;2023-02-28T07:46:41;10.95;;;2.10;;
64500;SDS011;50874;24.150;-110.320;2023-02-28T07:49:07;18.40;;;2.85;;
64500;SDS011;50874;24.150;-110.320;2023-02-28T07:51:34;15.20;;;2.25;;
64500;SDS011;50874;24.150;-110.320;2023-02-28T07:54:00;12.63;;;1.45;;
64500;SDS011;50874;24.150;-110.320;2023-02-28T07:56:27;20.70;;;2.70;;
64500;SDS011;50874;24.150;-110.320;2023-02-28T07:58:53;13.13;;;1.77;;
64500;SDS011;50874;24.150;-110.320;2023-02-28T08:01:20;9.13;;;1.40;;
64500;SDS011;50874;24.150;-110.320;2023-02-28T08:03:47;11.13;;;1.77;;
64500;SDS011;50874;24.150;-110.320;2023-02-28T08:06:18;13.10;;;1.92;;
64500;SDS011;50874;24.150;-110.320;2023-02-28T08:08:46;7.05;;;1.63;;
64500;SDS011;50874;24.150;-110.320;2023-02-28T08:11:13;13.85;;;1.83;;
64500;SDS011;50874;24.150;-110.320;2023-02-28T08:13:40;6.57;;;1.65;;
64500;SDS011;50874;24.150;-110.320;2023-02-28T08:16:09;7.07;;;1.75;;
64500;SDS011;50874;24.150;-110.320;2023-02-28T08:18:36;16.38;;;1.20;;
64500;SDS011;50874;24.150;-110.320;2023-02-28T08:21:12;8.00;;;1.58;;
64500;SDS011;50874;24.150;-110.320;2023-02-28T08:23:38;11.32;;;1.40;;
64500;SDS011;50874;24.150;-110.320;2023-02-28T08:26:05;3.58;;;1.25;;
64500;SDS011;50874;24.150;-110.320;2023-02-28T08:28:31;4.05;;;1.08;;
64500;SDS011;50874;24.150;-110.320;2023-02-28T08:30:58;5.25;;;1.50;;
64500;SDS011;50874;24.150;-110.320;2023-02-28T08:33:25;10.10;;;1.80;;
64500;SDS011;50874;24.150;-110.320;2023-02-28T08:35:53;7.25;;;1.60;;
64500;SDS011;50874;24.150;-110.320;2023-02-28T08:38:20;15.68;;;2.50;;
64500;SDS011;50874;24.150;-110.320;2023-02-28T08:40:47;10.82;;;1.60;;
64500;SDS011;50874;24.150;-110.320;2023-02-28T08:43:14;15.10;;;1.63;;
64500;SDS011;50874;24.150;-110.320;2023-02-28T08:45:40;5.15;;;1.20;;
64500;SDS011;50874;24.150;-110.320;2023-02-28T08:48:07;5.90;;;1.38;;
64500;SDS011;50874;24.150;-110.320;2023-02-28T08:50:33;4.78;;;1.20;;
64500;SDS011;50874;24.150;-110.320;2023-02-28T08:52:59;6.28;;;0.93;;
64500;SDS011;50874;24.150;-110.320;2023-02-28T08:55:26;7.30;;;0.95;;
64500;SDS011;50874;24.150;-110.320;2023-02-28T08:57:52;3.70;;;0.60;;
64500;SDS011;50874;24.150;-110.320;2023-02-28T09:00:20;5.57;;;1.30;;
64500;SDS011;50874;24.150;-110.320;2023-02-28T09:02:47;1.98;;;0.73;;
64500;SDS011;50874;24.150;-110.320;2023-02-28T09:05:13;4.00;;;0.98;;
64500;SDS011;50874;24.150;-110.320;2023-02-28T09:07:40;6.93;;;0.98;;
64500;SDS011;50874;24.150;-110.320;2023-02-28T09:10:07;5.13;;;1.25;;
64500;SDS011;50874;24.150;-110.320;2023-02-28T09:12:34;14.90;;;1.95;;
64500;SDS011;50874;24.150;-110.320;2023-02-28T09:15:01;12.80;;;1.83;;
64500;SDS011;50874;24.150;-110.320;2023-02-28T09:17:28;9.88;;;1.55;;
64500;SDS011;50874;24.150;-110.320;2023-02-28T09:19:54;7.93;;;1.95;;
64500;SDS011;50874;24.150;-110.320;2023-02-28T09:22:21;9.68;;;1.90;;
64500;SDS011;50874;24.150;-110.320;2023-02-28T09:24:47;8.48;;;1.25;;
64500;SDS011;50874;24.150;-110.320;2023-02-28T09:27:14;8.10;;;1.23;;
64500;SDS011;50874;24.150;-110.320;2023-02-28T09:29:40;8.73;;;0.88;;
64500;SDS011;50874;24.150;-110.320;2023-02-28T09:32:07;9.75;;;1.98;;
64500;SDS011;50874;24.150;-110.320;2023-02-28T09:34:33;5.85;;;1.35;;
64500;SDS011;50874;24.150;-110.320;2023-02-28T09:37:02;2.78;;;1.02;;
64500;SDS011;50874;24.150;-110.320;2023-02-28T09:39:28;6.47;;;1.33;;
64500;SDS011;50874;24.150;-110.320;2023-02-28T09:41:55;3.92;;;1.30;;
64500;SDS011;50874;24.150;-110.320;2023-02-28T09:44:26;4.28;;;1.23;;
64500;SDS011;50874;24.150;-110.320;2023-02-28T09:47:17;3.80;;;1.10;;
64500;SDS011;50874;24.150;-110.320;2023-02-28T09:49:48;4.72;;;1.30;;
64500;SDS011;50874;24.150;-110.320;2023-02-28T09:52:26;2.33;;;1.17;;
64500;SDS011;50874;24.150;-110.320;2023-02-28T09:54:55;4.15;;;1.80;;
64500;SDS011;50874;24.150;-110.320;2023-02-28T10:00:13;3.83;;;1.30;;
64500;SDS011;50874;24.150;-110.320;2023-02-28T10:05:31;3.92;;;1.38;;
64500;SDS011;50874;24.150;-110.320;2023-02-28T10:08:16;8.80;;;2.13;;
64500;SDS011;50874;24.150;-110.320;2023-02-28T10:10:51;15.50;;;3.20;;
64500;SDS011;50874;24.150;-110.320;2023-02-28T10:16:22;20.17;;;4.72;;
64500;SDS011;50874;24.150;-110.320;2023-02-28T10:24:05;29.58;;;5.97;;
64500;SDS011;50874;24.150;-110.320;2023-02-28T10:26:51;12.52;;;4.25;;
64500;SDS011;50874;24.150;-110.320;2023-02-28T10:29:22;15.02;;;4.20;;
64500;SDS011;50874;24.150;-110.320;2023-02-28T10:31:48;12.45;;;4.43;;
64500;SDS011;50874;24.150;-110.320;2023-02-28T10:34:15;11.13;;;4.35;;
64500;SDS011;50874;24.150;-110.320;2023-02-28T10:36:41;11.80;;;4.25;;
64500;SDS011;50874;24.150;-110.320;2023-02-28T10:45:10;26.33;;;5.68;;
64500;SDS011;50874;24.150;-110.320;2023-02-28T10:47:39;24.90;;;5.72;;
64500;SDS011;50874;24.150;-110.320;2023-02-28T10:50:42;17.30;;;5.72;;
64500;SDS011;50874;24.150;-110.320;2023-02-28T11:04:43;9.73;;;4.50;;
64500;SDS011;50874;24.150;-110.320;2023-02-28T11:07:06;11.30;;;4.40;;
64500;SDS011;50874;24.150;-110.320;2023-02-28T11:09:52;9.05;;;4.82;;
64500;SDS011;50874;24.150;-110.320;2023-02-28T11:12:26;10.38;;;4.70;;
64500;SDS011;50874;24.150;-110.320;2023-02-28T11:15:00;9.77;;;5.00;;
64500;SDS011;50874;24.150;-110.320;2023-02-28T11:17:54;11.38;;;4.60;;
64500;SDS011;50874;24.150;-110.320;2023-02-28T11:20:28;16.33;;;4.72;;
64500;SDS011;50874;24.150;-110.320;2023-02-28T11:22:57;14.73;;;5.03;;
64500;SDS011;50874;24.150;-110.320;2023-02-28T11:25:33;12.10;;;5.68;;
64500;SDS011;50874;24.150;-110.320;2023-02-28T11:28:04;14.73;;;4.50;;
64500;SDS011;50874;24.150;-110.320;2023-02-28T11:30:59;8.68;;;4.70;;
64500;SDS011;50874;24.150;-110.320;2023-02-28T11:33:42;9.90;;;4.10;;
64500;SDS011;50874;24.150;-110.320;2023-02-28T11:36:31;11.73;;;4.20;;
64500;SDS011;50874;24.150;-110.320;2023-02-28T11:39:00;10.32;;;4.90;;
64500;SDS011;50874;24.150;-110.320;2023-02-28T11:47:48;6.97;;;3.90;;
64500;SDS011;50874;24.150;-110.320;2023-02-28T11:50:51;7.53;;;3.58;;
64500;SDS011;50874;24.150;-110.320;2023-02-28T11:53:34;5.95;;;3.67;;
64500;SDS011;50874;24.150;-110.320;2023-02-28T12:01:41;9.98;;;4.00;;
64500;SDS011;50874;24.150;-110.320;2023-02-28T12:04:29;10.60;;;4.55;;
64500;SDS011;50874;24.150;-110.320;2023-02-28T12:12:53;10.00;;;3.33;;
64500;SDS011;50874;24.150;-110.320;2023-02-28T12:26:51;6.68;;;2.30;;
64500;SDS011;50874;24.150;-110.320;2023-02-28T12:29:22;7.75;;;2.83;;
64500;SDS011;50874;24.150;-110.320;2023-02-28T12:34:36;6.65;;;2.45;;
64500;SDS011;50874;24.150;-110.320;2023-02-28T12:37:15;4.50;;;2.75;;
64500;SDS011;50874;24.150;-110.320;2023-02-28T12:39:49;6.22;;;2.22;;
64500;SDS011;50874;24.150;-110.320;2023-02-28T12:42:24;18.77;;;3.50;;
64500;SDS011;50874;24.150;-110.320;2023-02-28T12:44:56;16.08;;;3.40;;
64500;SDS011;50874;24.150;-110.320;2023-02-28T12:47:26;22.73;;;4.30;;
64500;SDS011;50874;24.150;-110.320;2023-02-28T12:49:57;23.48;;;3.78;;
64500;SDS011;50874;24.150;-110.320;2023-02-28T12:52:40;18.17;;;4.22;;
64500;SDS011;50874;24.150;-110.320;2023-02-28T12:55:14;31.35;;;4.22;;
64500;SDS011;50874;24.150;-110.320;2023-02-28T13:09:37;29.17;;;5.47;;
64500;SDS011;50874;24.150;-110.320;2023-02-28T13:12:12;23.27;;;3.88;;
64500;SDS011;50874;24.150;-110.320;2023-02-28T13:14:40;58.22;;;5.25;;
64500;SDS011;50874;24.150;-110.320;2023-02-28T13:19:43;46.67;;;5.00;;
64500;SDS011;50874;24.150;-110.320;2023-02-28T13:25:13;44.17;;;3.97;;
64500;SDS011;50874;24.150;-110.320;2023-02-28T13:28:11;22.67;;;4.38;;
64500;SDS011;50874;24.150;-110.320;2023-02-28T13:33:30;74.95;;;7.78;;
64500;SDS011;50874;24.150;-110.320;2023-02-28T13:36:09;83.57;;;10.13;;
64500;SDS011;50874;24.150;-110.320;2023-02-28T13:38:37;101.53;;;9.18;;
64500;SDS011;50874;24.150;-110.320;2023-02-28T13:44:10;141.15;;;14.38;;
64500;SDS011;50874;24.150;-110.320;2023-02-28T13:54:51;329.02;;;33.70;;
64500;SDS011;50874;24.150;-110.320;2023-02-28T13:57:45;678.92;;;62.47;;
64500;SDS011;50874;24.150;-110.320;2023-02-28T14:03:29;426.58;;;38.35;;
64500;SDS011;50874;24.150;-110.320;2023-02-28T14:06:34;412.23;;;40.88;;
64500;SDS011;50874;24.150;-110.320;2023-02-28T14:11:43;145.50;;;12.93;;
64500;SDS011;50874;24.150;-110.320;2023-02-28T14:14:56;137.95;;;13.43;;
64500;SDS011;50874;24.150;-110.320;2023-02-28T14:17:03;111.90;;;10.70;;
64500;SDS011;50874;24.150;-110.320;2023-02-28T14:19:39;112.50;;;12.60;;
64500;SDS011;50874;24.150;-110.320;2023-02-28T14:31:05;156.73;;;16.48;;
64500;SDS011;50874;24.150;-110.320;2023-02-28T14:36:26;118.70;;;10.63;;
64500;SDS011;50874;24.150;-110.320;2023-02-28T14:39:10;110.15;;;11.90;;
64500;SDS011;50874;24.150;-110.320;2023-02-28T14:41:40;266.17;;;24.85;;
64500;SDS011;50874;24.150;-110.320;2023-02-28T14:44:21;137.85;;;16.02;;
64500;SDS011;50874;24.150;-110.320;2023-02-28T14:46:50;143.27;;;16.75;;
64500;SDS011;50874;24.150;-110.320;2023-02-28T14:49:42;283.10;;;28.92;;
64500;SDS011;50874;24.150;-110.320;2023-02-28T14:52:15;269.77;;;29.30;;
64500;SDS011;50874;24.150;-110.320;2023-02-28T14:55:34;318.95;;;31.40;;
64500;SDS011;50874;24.150;-110.320;2023-02-28T14:57:53;235.13;;;24.15;;
64500;SDS011;50874;24.150;-110.320;2023-02-28T15:02:55;218.32;;;24.45;;
64500;SDS011;50874;24.150;-110.320;2023-02-28T15:05:27;140.88;;;18.02;;
64500;SDS011;50874;24.150;-110.320;2023-02-28T15:08:15;155.27;;;17.30;;
64500;SDS011;50874;24.150;-110.320;2023-02-28T15:10:49;122.55;;;14.73;;
64500;SDS011;50874;24.150;-110.320;2023-02-28T15:13:45;423.50;;;49.80;;
64500;SDS011;50874;24.150;-110.320;2023-02-28T15:16:17;166.52;;;16.90;;
64500;SDS011;50874;24.150;-110.320;2023-02-28T15:24:24;79.53;;;10.10;;
64500;SDS011;50874;24.150;-110.320;2023-02-28T15:26:58;128.10;;;16.25;;
64500;SDS011;50874;24.150;-110.320;2023-02-28T15:29:29;130.60;;;16.40;;
64500;SDS011;50874;24.150;-110.320;2023-02-28T15:34:40;92.30;;;10.90;;
64500;SDS011;50874;24.150;-110.320;2023-02-28T15:39:53;101.07;;;12.45;;
64500;SDS011;50874;24.150;-110.320;2023-02-28T15:42:22;117.50;;;13.60;;
64500;SDS011;50874;24.150;-110.320;2023-02-28T15:44:52;83.93;;;10.82;;
64500;SDS011;50874;24.150;-110.320;2023-02-28T15:47:23;101.68;;;10.18;;
64500;SDS011;50874;24.150;-110.320;2023-02-28T15:49:56;70.80;;;8.85;;
64500;SDS011;50874;24.150;-110.320;2023-02-28T15:52:47;87.97;;;9.82;;
64500;SDS011;50874;24.150;-110.320;2023-02-28T15:56:01;112.25;;;11.23;;
64500;SDS011;50874;24.150;-110.320;2023-02-28T15:58:32;93.18;;;10.32;;
64500;SDS011;50874;24.150;-110.320;2023-02-28T16:01:24;110.25;;;10.95;;
64500;SDS011;50874;24.150;-110.320;2023-02-28T16:03:52;87.53;;;11.10;;
64500;SDS011;50874;24.150;-110.320;2023-02-28T16:06:24;101.18;;;9.82;;
64500;SDS011;50874;24.150;-110.320;2023-02-28T16:08:57;104.95;;;11.90;;
64500;SDS011;50874;24.150;-110.320;2023-02-28T16:11:24;111.15;;;11.75;;
64500;SDS011;50874;24.150;-110.320;2023-02-28T16:13:51;135.98;;;12.77;;
64500;SDS011;50874;24.150;-110.320;2023-02-28T16:16:23;141.50;;;16.02;;
64500;SDS011;50874;24.150;-110.320;2023-02-28T16:19:04;117.80;;;13.47;;
64500;SDS011;50874;24.150;-110.320;2023-02-28T16:21:30;132.50;;;14.23;;
64500;SDS011;50874;24.150;-110.320;2023-02-28T16:24:06;104.78;;;12.80;;
64500;SDS011;50874;24.150;-110.320;2023-02-28T16:30:05;89.18;;;12.95;;
64500;SDS011;50874;24.150;-110.320;2023-02-28T16:32:36;84.60;;;11.30;;
64500;SDS011;50874;24.150;-110.320;2023-02-28T16:35:03;98.20;;;13.23;;
64500;SDS011;50874;24.150;-110.320;2023-02-28T16:37:31;100.13;;;11.32;;
64500;SDS011;50874;24.150;-110.320;2023-02-28T16:40:22;121.00;;;12.70;;
64500;SDS011;50874;24.150;-110.320;2023-02-28T16:42:51;96.68;;;12.88;;
64500;SDS011;50874;24.150;-110.320;2023-02-28T16:45:26;110.95;;;12.52;;
64500;SDS011;50874;24.150;-110.320;2023-02-28T16:47:54;97.10;;;10.98;;
64500;SDS011;50874;24.150;-110.320;2023-02-28T16:50:23;85.95;;;9.75;;
64500;SDS011;50874;24.150;-110.320;2023-02-28T16:52:53;70.97;;;9.13;;
64500;SDS011;50874;24.150;-110.320;2023-02-28T16:55:21;79.25;;;9.98;;
64500;SDS011;50874;24.150;-110.320;2023-02-28T16:57:52;92.30;;;10.02;;
64500;SDS011;50874;24.150;-110.320;2023-02-28T17:00:20;50.55;;;9.40;;
64500;SDS011;50874;24.150;-110.320;2023-02-28T17:02:47;79.05;;;9.70;;
64500;SDS011;50874;24.150;-110.320;2023-02-28T17:05:14;76.47;;;9.10;;